sensor_id;sensor_type;location;lat;lon;timestamp;pressure;altitude;pressure_sealevel;temperature;humidity
37778;BME280;23615;51.506;7.678;2024-01-06T00:00:45;98640.44;;;6.71;100.00
37778;BME280;23615;51.506;7.678;2024-01-06T00:03:11;98646.44;;;6.55;100.00
37778;BME280;23615;51.506;7.678;2024-01-06T00:05:36;98641.38;;;6.53;100.00
37778;BME280;23615;51.506;7.678;2024-01-06T00:08:01;98654.59;;;6.76;100.00
37778;BME280;23615;51.506;7.678;2024-01-06T00:10:26;98648.59;;;6.81;100.00
37778;BME280;23615;51.506;7.678;2024-01-06T00:12:52;98651.47;;;6.91;100.00
37778;BME280;23615;51.506;7.678;2024-01-06T00:15:17;98648.59;;;6.81;100.00
37778;BME280;23615;51.506;7.678;2024-01-06T00:17:42;98653.69;;;6.59;100.00
37778;BME280;23615;51.506;7.678;2024-01-06T00:20:08;98650.56;;;6.74;100.00
37778;BME280;23615;51.506;7.678;2024-01-06T00:22:33;98653.31;;;6.56;100.00
37778;BME280;23615;51.506;7.678;2024-01-06T00:24:59;98660.72;;;6.54;100.00
37778;BME280;23615;51.506;7.678;2024-01-06T00:27:25;98667.50;;;6.61;100.00
37778;BME280;23615;51.506;7.678;2024-01-06T00:29:50;98664.41;;;6.64;100.00
37778;BME280;23615;51.506;7.678;2024-01-06T00:32:15;98666.47;;;6.62;100.00
37778;BME280;23615;51.506;7.678;2024-01-06T00:34:40;98674.75;;;6.66;100.00
37778;BME280;23615;51.506;7.678;2024-01-06T00:37:06;98677.41;;;6.66;100.00
37778;BME280;23615;51.506;7.678;2024-01-06T00:39:31;98668.56;;;6.72;100.00
37778;BME280;23615;51.506;7.678;2024-01-06T00:41:57;98669.69;;;6.76;100.00
37778;BME280;23615;51.506;7.678;2024-01-06T00:44:22;98675.69;;;6.71;100.00
37778;BME280;23615;51.506;7.678;2024-01-06T00:46:47;98672.69;;;6.68;100.00
37778;BME280;23615;51.506;7.678;2024-01-06T00:49:12;98680.88;;;6.90;100.00
37778;BME280;23615;51.506;7.678;2024-01-06T00:51:38;98682.72;;;6.89;100.00
37778;BME280;23615;51.506;7.678;2024-01-06T00:54:03;98675.66;;;6.95;100.00
37778;BME280;23615;51.506;7.678;2024-01-06T00:56:28;98683.53;;;6.78;100.00
37778;BME280;23615;51.506;7.678;2024-01-06T00:58:54;98680.78;;;6.73;100.00
37778;BME280;23615;51.506;7.678;2024-01-06T01:01:19;98677.88;;;6.63;100.00
37778;BME280;23615;51.506;7.678;2024-01-06T01:03:45;98687.56;;;6.69;100.00
37778;BME280;23615;51.506;7.678;2024-01-06T01:06:10;98691.47;;;6.66;100.00
37778;BME280;23615;51.506;7.678;2024-01-06T01:08:36;98685.94;;;6.68;100.00
37778;BME280;23615;51.506;7.678;2024-01-06T01:11:01;98693.66;;;6.69;100.00
37778;BME280;23615;51.506;7.678;2024-01-06T01:13:26;98694.34;;;6.65;100.00
37778;BME280;23615;51.506;7.678;2024-01-06T01:15:52;98691.94;;;6.63;100.00
37778;BME280;23615;51.506;7.678;2024-01-06T01:18:17;98696.09;;;6.59;100.00
37778;BME280;23615;51.506;7.678;2024-01-06T01:20:42;98699.31;;;6.50;100.00
37778;BME280;23615;51.506;7.678;2024-01-06T01:23:08;98694.22;;;6.48;100.00
37778;BME280;23615;51.506;7.678;2024-01-06T01:25:33;98710.84;;;6.55;100.00
37778;BME280;23615;51.506;7.678;2024-01-06T01:27:59;98710.38;;;6.70;100.00
37778;BME280;23615;51.506;7.678;2024-01-06T01:30:24;98712.66;;;6.66;100.00
37778;BME280;23615;51.506;7.678;2024-01-06T01:32:50;98712.09;;;6.53;100.00
37778;BME280;23615;51.506;7.678;2024-01-06T01:35:15;98713.72;;;6.54;100.00
37778;BME280;23615;51.506;7.678;2024-01-06T01:37:40;98711.41;;;6.69;100.00
37778;BME280;23615;51.506;7.678;2024-01-06T01:40:06;98717.19;;;6.54;100.00
37778;BME280;23615;51.506;7.678;2024-01-06T01:42:32;98719.25;;;6.64;100.00
37778;BME280;23615;51.506;7.678;2024-01-06T01:44:58;98717.41;;;6.64;100.00
37778;BME280;23615;51.506;7.678;2024-01-06T01:47:23;98717.41;;;6.64;100.00
37778;BME280;23615;51.506;7.678;2024-01-06T01:49:49;98718.22;;;6.53;100.00
37778;BME280;23615;51.506;7.678;2024-01-06T01:52:15;98728.00;;;6.53;100.00
37778;BME280;23615;51.506;7.678;2024-01-06T01:54:41;98726.50;;;6.68;100.00
37778;BME280;23615;51.506;7.678;2024-01-06T01:57:08;98722.59;;;6.83;100.00
37778;BME280;23615;51.506;7.678;2024-01-06T01:59:35;98728.34;;;6.80;100.00
37778;BME280;23615;51.506;7.678;2024-01-06T02:02:02;98729.84;;;6.87;100.00
37778;BME280;23615;51.506;7.678;2024-01-06T02:04:27;98731.00;;;6.68;100.00
37778;BME280;23615;51.506;7.678;2024-01-06T02:06:52;98729.03;;;6.63;100.00
37778;BME280;23615;51.506;7.678;2024-01-06T02:09:18;98725.44;;;6.58;100.00
37778;BME280;23615;51.506;7.678;2024-01-06T02:11:43;98735.63;;;6.72;100.00
37778;BME280;23615;51.506;7.678;2024-01-06T02:14:08;98744.25;;;6.68;100.00
37778;BME280;23615;51.506;7.678;2024-01-06T02:16:33;98746.19;;;6.61;100.00
37778;BME280;23615;51.506;7.678;2024-01-06T02:18:59;98735.81;;;6.59;100.00
37778;BME280;23615;51.506;7.678;2024-01-06T02:21:27;98736.31;;;6.91;100.00
37778;BME280;23615;51.506;7.678;2024-01-06T02:23:52;98735.81;;;6.94;100.00
37778;BME280;23615;51.506;7.678;2024-01-06T02:26:18;98741.94;;;6.95;100.00
37778;BME280;23615;51.506;7.678;2024-01-06T02:28:43;98745.16;;;6.85;100.00
37778;BME280;23615;51.506;7.678;2024-01-06T02:31:12;98751.75;;;6.71;100.00
37778;BME280;23615;51.506;7.678;2024-01-06T02:33:38;98757.94;;;6.65;100.00
37778;BME280;23615;51.506;7.678;2024-01-06T02:36:03;98756.25;;;6.70;100.00
37778;BME280;23615;51.506;7.678;2024-01-06T02:38:29;98762.34;;;6.71;100.00
37778;BME280;23615;51.506;7.678;2024-01-06T02:40:54;98760.97;;;6.80;100.00
37778;BME280;23615;51.506;7.678;2024-01-06T02:43:19;98771.44;;;6.75;100.00
37778;BME280;23615;51.506;7.678;2024-01-06T02:45:45;98765.69;;;6.78;100.00
37778;BME280;23615;51.506;7.678;2024-01-06T02:48:11;98771.09;;;6.71;100.00
37778;BME280;23615;51.506;7.678;2024-01-06T02:50:37;98778.25;;;6.71;100.00
37778;BME280;23615;51.506;7.678;2024-01-06T02:53:02;98774.53;;;6.60;100.00
37778;BME280;23615;51.506;7.678;2024-01-06T02:55:28;98774.31;;;6.62;100.00
37778;BME280;23615;51.506;7.678;2024-01-06T02:57:53;98780.66;;;6.61;100.00
37778;BME280;23615;51.506;7.678;2024-01-06T03:00:18;98780.88;;;6.59;100.00
37778;BME280;23615;51.506;7.678;2024-01-06T03:02:44;98786.63;;;6.56;100.00
37778;BME280;23615;51.506;7.678;2024-01-06T03:05:09;98787.34;;;6.63;100.00
37778;BME280;23615;51.506;7.678;2024-01-06T03:07:35;98789.28;;;6.56;100.00
37778;BME280;23615;51.506;7.678;2024-01-06T03:10:00;98795.03;;;6.53;100.00
37778;BME280;23615;51.506;7.678;2024-01-06T03:12:26;98792.03;;;6.50;100.00
37778;BME280;23615;51.506;7.678;2024-01-06T03:14:51;98797.47;;;6.55;100.00
37778;BME280;23615;51.506;7.678;2024-01-06T03:17:18;98796.31;;;6.62;100.00
37778;BME280;23615;51.506;7.678;2024-01-06T03:19:44;98804.06;;;6.64;100.00
37778;BME280;23615;51.506;7.678;2024-01-06T03:22:09;98804.16;;;6.69;100.00
37778;BME280;23615;51.506;7.678;2024-01-06T03:24:34;98797.25;;;6.68;100.00
37778;BME280;23615;51.506;7.678;2024-01-06T03:27:00;98801.41;;;6.75;100.00
37778;BME280;23615;51.506;7.678;2024-01-06T03:29:25;98802.47;;;6.86;100.00
37778;BME280;23615;51.506;7.678;2024-01-06T03:31:50;98806.81;;;6.69;100.00
37778;BME280;23615;51.506;7.678;2024-01-06T03:34:15;98806.38;;;6.72;100.00
37778;BME280;23615;51.506;7.678;2024-01-06T03:36:41;98812.22;;;6.74;100.00
37778;BME280;23615;51.506;7.678;2024-01-06T03:39:07;98816.75;;;6.73;100.00
37778;BME280;23615;51.506;7.678;2024-01-06T03:41:32;98821.09;;;6.68;100.00
37778;BME280;23615;51.506;7.678;2024-01-06T03:43:58;98818.59;;;6.73;100.00
37778;BME280;23615;51.506;7.678;2024-01-06T03:46:23;98822.06;;;6.73;100.00
37778;BME280;23615;51.506;7.678;2024-01-06T03:48:49;98820.50;;;6.66;100.00
37778;BME280;23615;51.506;7.678;2024-01-06T03:51:14;98826.53;;;6.85;100.00
37778;BME280;23615;51.506;7.678;2024-01-06T03:53:40;98828.97;;;6.98;100.00
37778;BME280;23615;51.506;7.678;2024-01-06T03:56:06;98831.88;;;7.08;100.00
37778;BME280;23615;51.506;7.678;2024-01-06T03:58:31;98826.69;;;6.90;100.00
37778;BME280;23615;51.506;7.678;2024-01-06T04:00:57;98838.44;;;6.82;100.00
37778;BME280;23615;51.506;7.678;2024-01-06T04:03:22;98849.16;;;6.99;100.00
37778;BME280;23615;51.506;7.678;2024-01-06T04:05:47;98842.19;;;6.74;100.00
37778;BME280;23615;51.506;7.678;2024-01-06T04:08:13;98843.88;;;6.46;100.00
37778;BME280;23615;51.506;7.678;2024-01-06T04:10:38;98836.41;;;6.24;100.00
37778;BME280;23615;51.506;7.678;2024-01-06T04:13:04;98839.38;;;6.16;100.00
37778;BME280;23615;51.506;7.678;2024-01-06T04:15:30;98846.94;;;6.13;100.00
37778;BME280;23615;51.506;7.678;2024-01-06T04:17:55;98839.59;;;6.15;100.00
37778;BME280;23615;51.506;7.678;2024-01-06T04:20:20;98837.56;;;5.98;100.00
37778;BME280;23615;51.506;7.678;2024-01-06T04:22:46;98846.13;;;6.12;100.00
37778;BME280;23615;51.506;7.678;2024-01-06T04:25:11;98843.22;;;6.02;100.00
37778;BME280;23615;51.506;7.678;2024-01-06T04:27:36;98844.19;;;6.08;100.00
37778;BME280;23615;51.506;7.678;2024-01-06T04:30:02;98849.19;;;5.97;100.00
37778;BME280;23615;51.506;7.678;2024-01-06T04:32:27;98857.75;;;6.11;100.00
37778;BME280;23615;51.506;7.678;2024-01-06T04:34:52;98852.56;;;6.05;100.00
37778;BME280;23615;51.506;7.678;2024-01-06T04:37:18;98855.44;;;6.03;100.00
37778;BME280;23615;51.506;7.678;2024-01-06T04:39:43;98865.88;;;5.98;100.00
37778;BME280;23615;51.506;7.678;2024-01-06T04:42:08;98865.66;;;6.29;100.00
37778;BME280;23615;51.506;7.678;2024-01-06T04:44:34;98866.00;;;6.21;100.00
37778;BME280;23615;51.506;7.678;2024-01-06T04:47:00;98864.03;;;6.17;100.00
37778;BME280;23615;51.506;7.678;2024-01-06T04:49:25;98863.84;;;6.00;100.00
37778;BME280;23615;51.506;7.678;2024-01-06T04:51:50;98869.25;;;6.05;100.00
37778;BME280;23615;51.506;7.678;2024-01-06T04:54:15;98868.28;;;6.18;100.00
37778;BME280;23615;51.506;7.678;2024-01-06T04:56:41;98867.59;;;6.22;100.00
37778;BME280;23615;51.506;7.678;2024-01-06T04:59:06;98875.22;;;6.19;100.00
37778;BME280;23615;51.506;7.678;2024-01-06T05:01:32;98873.66;;;6.11;100.00
37778;BME280;23615;51.506;7.678;2024-01-06T05:03:57;98878.38;;;6.09;100.00
37778;BME280;23615;51.506;7.678;2024-01-06T05:06:24;98880.78;;;5.92;100.00
37778;BME280;23615;51.506;7.678;2024-01-06T05:08:49;98886.22;;;5.79;100.00
37778;BME280;23615;51.506;7.678;2024-01-06T05:11:15;98895.78;;;5.80;100.00
37778;BME280;23615;51.506;7.678;2024-01-06T05:13:40;98891.72;;;5.78;100.00
37778;BME280;23615;51.506;7.678;2024-01-06T05:16:06;98903.03;;;5.67;100.00
37778;BME280;23615;51.506;7.678;2024-01-06T05:18:32;98905.19;;;5.76;100.00
37778;BME280;23615;51.506;7.678;2024-01-06T05:20:57;98902.44;;;5.64;100.00
37778;BME280;23615;51.506;7.678;2024-01-06T05:23:23;98903.00;;;5.48;100.00
37778;BME280;23615;51.506;7.678;2024-01-06T05:25:48;98914.94;;;5.76;100.00
37778;BME280;23615;51.506;7.678;2024-01-06T05:28:13;98915.97;;;5.75;100.00
37778;BME280;23615;51.506;7.678;2024-01-06T05:30:39;98919.72;;;5.67;100.00
37778;BME280;23615;51.506;7.678;2024-01-06T05:33:04;98915.31;;;5.61;100.00
37778;BME280;23615;51.506;7.678;2024-01-06T05:35:29;98925.03;;;5.67;100.00
37778;BME280;23615;51.506;7.678;2024-01-06T05:37:55;98925.81;;;5.68;100.00
37778;BME280;23615;51.506;7.678;2024-01-06T05:40:21;98926.63;;;5.68;100.00
37778;BME280;23615;51.506;7.678;2024-01-06T05:42:46;98932.53;;;5.70;100.00
37778;BME280;23615;51.506;7.678;2024-01-06T05:45:11;98932.44;;;5.58;100.00
37778;BME280;23615;51.506;7.678;2024-01-06T05:47:40;98941.69;;;5.68;100.00
37778;BME280;23615;51.506;7.678;2024-01-06T05:50:05;98932.91;;;5.49;100.00
37778;BME280;23615;51.506;7.678;2024-01-06T05:52:32;98940.53;;;5.63;100.00
37778;BME280;23615;51.506;7.678;2024-01-06T05:54:58;98932.50;;;5.52;100.00
37778;BME280;23615;51.506;7.678;2024-01-06T05:57:23;98933.47;;;5.33;100.00
37778;BME280;23615;51.506;7.678;2024-01-06T05:59:48;98945.69;;;5.34;100.00
37778;BME280;23615;51.506;7.678;2024-01-06T06:02:14;98942.03;;;5.28;100.00
37778;BME280;23615;51.506;7.678;2024-01-06T06:04:39;98954.47;;;5.28;100.00
37778;BME280;23615;51.506;7.678;2024-01-06T06:07:05;98953.75;;;5.39;100.00
37778;BME280;23615;51.506;7.678;2024-01-06T06:09:30;98951.22;;;5.50;100.00
37778;BME280;23615;51.506;7.678;2024-01-06T06:11:55;98957.66;;;5.61;100.00
37778;BME280;23615;51.506;7.678;2024-01-06T06:14:21;98953.94;;;5.44;100.00
37778;BME280;23615;51.506;7.678;2024-01-06T06:16:46;98950.81;;;5.53;100.00
37778;BME280;23615;51.506;7.678;2024-01-06T06:19:13;98954.56;;;5.39;100.00
37778;BME280;23615;51.506;7.678;2024-01-06T06:21:38;98961.69;;;5.39;100.00
37778;BME280;23615;51.506;7.678;2024-01-06T06:24:04;98953.63;;;5.34;100.00
37778;BME280;23615;51.506;7.678;2024-01-06T06:26:29;98968.47;;;5.35;100.00
37778;BME280;23615;51.506;7.678;2024-01-06T06:28:55;98964.28;;;5.20;100.00
37778;BME280;23615;51.506;7.678;2024-01-06T06:31:20;98970.72;;;5.31;100.00
37778;BME280;23615;51.506;7.678;2024-01-06T06:33:45;98968.13;;;5.24;100.00
37778;BME280;23615;51.506;7.678;2024-01-06T06:36:11;98978.22;;;5.34;100.00
37778;BME280;23615;51.506;7.678;2024-01-06T06:38:36;98986.84;;;5.48;100.00
37778;BME280;23615;51.506;7.678;2024-01-06T06:41:01;98999.97;;;5.61;100.00
37778;BME280;23615;51.506;7.678;2024-01-06T06:43:27;98996.91;;;5.64;100.00
37778;BME280;23615;51.506;7.678;2024-01-06T06:45:53;99003.22;;;5.63;100.00
37778;BME280;23615;51.506;7.678;2024-01-06T06:48:18;99006.09;;;5.61;100.00
37778;BME280;23615;51.506;7.678;2024-01-06T06:50:43;99014.84;;;5.62;100.00
37778;BME280;23615;51.506;7.678;2024-01-06T06:53:09;99014.66;;;5.57;100.00
37778;BME280;23615;51.506;7.678;2024-01-06T06:55:34;99020.06;;;5.44;100.00
37778;BME280;23615;51.506;7.678;2024-01-06T06:58:02;99020.28;;;5.67;100.00
37778;BME280;23615;51.506;7.678;2024-01-06T07:00:27;99025.91;;;5.52;100.00
37778;BME280;23615;51.506;7.678;2024-01-06T07:02:53;99026.53;;;5.48;100.00
37778;BME280;23615;51.506;7.678;2024-01-06T07:05:18;99035.00;;;5.56;100.00
37778;BME280;23615;51.506;7.678;2024-01-06T07:07:43;99035.47;;;5.53;100.00
37778;BME280;23615;51.506;7.678;2024-01-06T07:10:12;99042.84;;;5.45;100.00
37778;BME280;23615;51.506;7.678;2024-01-06T07:12:37;99055.47;;;5.43;100.00
37778;BME280;23615;51.506;7.678;2024-01-06T07:15:03;99048.34;;;5.43;100.00
37778;BME280;23615;51.506;7.678;2024-01-06T07:17:28;99054.25;;;5.39;100.00
37778;BME280;23615;51.506;7.678;2024-01-06T07:19:54;99063.88;;;5.33;100.00
37778;BME280;23615;51.506;7.678;2024-01-06T07:22:19;99068.75;;;5.30;100.00
37778;BME280;23615;51.506;7.678;2024-01-06T07:24:45;99070.28;;;5.19;100.00
37778;BME280;23615;51.506;7.678;2024-01-06T07:27:10;99080.41;;;5.22;100.00
37778;BME280;23615;51.506;7.678;2024-01-06T07:29:35;99076.53;;;5.24;100.00
37778;BME280;23615;51.506;7.678;2024-01-06T07:32:01;99082.31;;;5.08;100.00
37778;BME280;23615;51.506;7.678;2024-01-06T07:34:26;99085.78;;;5.09;100.00
37778;BME280;23615;51.506;7.678;2024-01-06T07:36:52;99087.84;;;5.00;100.00
37778;BME280;23615;51.506;7.678;2024-01-06T07:39:17;99097.59;;;5.06;100.00
37778;BME280;23615;51.506;7.678;2024-01-06T07:41:43;99097.94;;;5.16;100.00
37778;BME280;23615;51.506;7.678;2024-01-06T07:44:08;99103.28;;;5.03;100.00
37778;BME280;23615;51.506;7.678;2024-01-06T07:46:33;99095.78;;;4.94;100.00
37778;BME280;23615;51.506;7.678;2024-01-06T07:49:00;99106.81;;;4.91;100.00
37778;BME280;23615;51.506;7.678;2024-01-06T07:51:25;99110.09;;;4.79;100.00
37778;BME280;23615;51.506;7.678;2024-01-06T07:53:51;99120.47;;;4.81;100.00
37778;BME280;23615;51.506;7.678;2024-01-06T07:56:16;99124.72;;;4.82;100.00
37778;BME280;23615;51.506;7.678;2024-01-06T07:58:42;99129.81;;;4.77;100.00
37778;BME280;23615;51.506;7.678;2024-01-06T08:01:07;99128.97;;;4.89;100.00
37778;BME280;23615;51.506;7.678;2024-01-06T08:03:32;99126.16;;;4.78;100.00
37778;BME280;23615;51.506;7.678;2024-01-06T08:05:58;99132.28;;;4.65;100.00
37778;BME280;23615;51.506;7.678;2024-01-06T08:08:23;99136.31;;;4.74;100.00
37778;BME280;23615;51.506;7.678;2024-01-06T08:10:48;99139.59;;;4.70;100.00
37778;BME280;23615;51.506;7.678;2024-01-06T08:13:14;99140.41;;;4.70;100.00
37778;BME280;23615;51.506;7.678;2024-01-06T08:15:39;99152.81;;;4.57;100.00
37778;BME280;23615;51.506;7.678;2024-01-06T08:18:04;99147.31;;;4.58;100.00
37778;BME280;23615;51.506;7.678;2024-01-06T08:20:30;99165.59;;;4.66;100.00
37778;BME280;23615;51.506;7.678;2024-01-06T08:22:55;99167.66;;;4.58;100.00
37778;BME280;23615;51.506;7.678;2024-01-06T08:25:20;99176.00;;;4.41;100.00
37778;BME280;23615;51.506;7.678;2024-01-06T08:27:46;99179.84;;;4.52;100.00
37778;BME280;23615;51.506;7.678;2024-01-06T08:30:11;99177.84;;;4.34;100.00
37778;BME280;23615;51.506;7.678;2024-01-06T08:32:37;99183.75;;;4.36;100.00
37778;BME280;23615;51.506;7.678;2024-01-06T08:35:02;99183.31;;;4.20;100.00
37778;BME280;23615;51.506;7.678;2024-01-06T08:37:29;99197.34;;;4.00;100.00
37778;BME280;23615;51.506;7.678;2024-01-06T08:39:54;99198.13;;;4.01;100.00
37778;BME280;23615;51.506;7.678;2024-01-06T08:42:19;99197.31;;;4.13;100.00
37778;BME280;23615;51.506;7.678;2024-01-06T08:44:45;99201.56;;;3.88;100.00
37778;BME280;23615;51.506;7.678;2024-01-06T08:47:10;99216.59;;;3.94;100.00
37778;BME280;23615;51.506;7.678;2024-01-06T08:49:35;99214.38;;;4.04;100.00
37778;BME280;23615;51.506;7.678;2024-01-06T08:52:01;99224.72;;;4.19;100.00
37778;BME280;23615;51.506;7.678;2024-01-06T08:54:26;99219.66;;;4.11;100.00
37778;BME280;23615;51.506;7.678;2024-01-06T08:56:51;99222.91;;;4.20;100.00
37778;BME280;23615;51.506;7.678;2024-01-06T08:59:17;99231.44;;;4.15;100.00
37778;BME280;23615;51.506;7.678;2024-01-06T09:01:42;99238.97;;;4.25;100.00
37778;BME280;23615;51.506;7.678;2024-01-06T09:04:07;99240.59;;;4.26;100.00
37778;BME280;23615;51.506;7.678;2024-01-06T09:06:33;99237.94;;;3.99;100.00
37778;BME280;23615;51.506;7.678;2024-01-06T09:08:58;99244.38;;;3.84;100.00
37778;BME280;23615;51.506;7.678;2024-01-06T09:11:23;99243.59;;;3.90;100.00
37778;BME280;23615;51.506;7.678;2024-01-06T09:13:49;99254.78;;;3.98;100.00
37778;BME280;23615;51.506;7.678;2024-01-06T09:16:18;99255.34;;;3.87;100.00
37778;BME280;23615;51.506;7.678;2024-01-06T09:18:43;99251.56;;;4.09;100.00
37778;BME280;23615;51.506;7.678;2024-01-06T09:21:09;99250.31;;;4.05;100.00
37778;BME280;23615;51.506;7.678;2024-01-06T09:23:34;99256.25;;;4.27;100.00
37778;BME280;23615;51.506;7.678;2024-01-06T09:25:59;99255.81;;;4.17;100.00
37778;BME280;23615;51.506;7.678;2024-01-06T09:28:25;99260.25;;;4.10;100.00
37778;BME280;23615;51.506;7.678;2024-01-06T09:30:50;99264.31;;;4.06;100.00
37778;BME280;23615;51.506;7.678;2024-01-06T09:33:17;99273.25;;;3.98;100.00
37778;BME280;23615;51.506;7.678;2024-01-06T09:35:43;99279.78;;;4.09;100.00
37778;BME280;23615;51.506;7.678;2024-01-06T09:38:09;99276.13;;;4.17;100.00
37778;BME280;23615;51.506;7.678;2024-01-06T09:40:35;99283.84;;;4.25;100.00
37778;BME280;23615;51.506;7.678;2024-01-06T09:43:00;99284.66;;;4.19;100.00
37778;BME280;23615;51.506;7.678;2024-01-06T09:45:28;99298.44;;;4.07;100.00
37778;BME280;23615;51.506;7.678;2024-01-06T09:47:54;99294.78;;;4.15;100.00
37778;BME280;23615;51.506;7.678;2024-01-06T09:50:21;99299.69;;;4.18;100.00
37778;BME280;23615;51.506;7.678;2024-01-06T09:52:47;99300.69;;;4.17;100.00
37778;BME280;23615;51.506;7.678;2024-01-06T09:55:25;99301.69;;;4.09;100.00
37778;BME280;23615;51.506;7.678;2024-01-06T09:57:53;99310.44;;;4.17;100.00
37778;BME280;23615;51.506;7.678;2024-01-06T10:00:19;99311.84;;;4.12;100.00
37778;BME280;23615;51.506;7.678;2024-01-06T10:02:48;99315.50;;;4.11;100.00
37778;BME280;23615;51.506;7.678;2024-01-06T10:05:15;99319.13;;;4.04;100.00
37778;BME280;23615;51.506;7.678;2024-01-06T10:07:42;99323.59;;;4.03;100.00
37778;BME280;23615;51.506;7.678;2024-01-06T10:10:09;99329.66;;;3.97;100.00
37778;BME280;23615;51.506;7.678;2024-01-06T10:12:37;99328.88;;;4.03;100.00
37778;BME280;23615;51.506;7.678;2024-01-06T10:15:02;99327.03;;;4.04;100.00
37778;BME280;23615;51.506;7.678;2024-01-06T10:17:28;99332.72;;;4.01;100.00
37778;BME280;23615;51.506;7.678;2024-01-06T10:19:53;99338.66;;;4.09;100.00
37778;BME280;23615;51.506;7.678;2024-01-06T10:22:19;99335.34;;;3.94;100.00
37778;BME280;23615;51.506;7.678;2024-01-06T10:24:45;99339.78;;;3.94;100.00
37778;BME280;23615;51.506;7.678;2024-01-06T10:27:11;99335.50;;;3.86;100.00
37778;BME280;23615;51.506;7.678;2024-01-06T10:29:36;99341.03;;;3.98;100.00
37778;BME280;23615;51.506;7.678;2024-01-06T10:32:02;99340.50;;;3.68;100.00
37778;BME280;23615;51.506;7.678;2024-01-06T10:34:28;99338.66;;;3.62;100.00
37778;BME280;23615;51.506;7.678;2024-01-06T10:36:54;99348.19;;;3.63;100.00
37778;BME280;23615;51.506;7.678;2024-01-06T10:39:20;99345.97;;;3.66;100.00
37778;BME280;23615;51.506;7.678;2024-01-06T10:41:48;99346.13;;;3.58;100.00
37778;BME280;23615;51.506;7.678;2024-01-06T10:44:14;99354.41;;;3.49;100.00
37778;BME280;23615;51.506;7.678;2024-01-06T10:46:41;99350.09;;;3.41;100.00
37778;BME280;23615;51.506;7.678;2024-01-06T10:49:08;99353.34;;;3.43;100.00
37778;BME280;23615;51.506;7.678;2024-01-06T10:51:37;99353.78;;;3.47;100.00
37778;BME280;23615;51.506;7.678;2024-01-06T10:54:02;99348.91;;;3.44;100.00
37778;BME280;23615;51.506;7.678;2024-01-06T10:56:29;99354.81;;;3.46;100.00
37778;BME280;23615;51.506;7.678;2024-01-06T10:58:56;99353.47;;;3.63;100.00
37778;BME280;23615;51.506;7.678;2024-01-06T11:01:23;99359.09;;;3.53;100.00
37778;BME280;23615;51.506;7.678;2024-01-06T11:03:52;99366.25;;;3.66;100.00
37778;BME280;23615;51.506;7.678;2024-01-06T11:06:20;99361.97;;;3.58;100.00
37778;BME280;23615;51.506;7.678;2024-01-06T11:09:00;99361.13;;;3.58;100.00
37778;BME280;23615;51.506;7.678;2024-01-06T11:11:28;99352.00;;;3.54;100.00
37778;BME280;23615;51.506;7.678;2024-01-06T11:14:18;99361.78;;;3.66;100.00
37778;BME280;23615;51.506;7.678;2024-01-06T11:16:44;99352.75;;;3.48;100.00
37778;BME280;23615;51.506;7.678;2024-01-06T11:22:27;99357.69;;;3.57;100.00
37778;BME280;23615;51.506;7.678;2024-01-06T11:25:06;99363.03;;;3.64;100.00
37778;BME280;23615;51.506;7.678;2024-01-06T11:27:32;99365.19;;;3.54;100.00
37778;BME280;23615;51.506;7.678;2024-01-06T11:29:59;99361.13;;;3.58;100.00
37778;BME280;23615;51.506;7.678;2024-01-06T11:32:37;99361.75;;;3.53;100.00
37778;BME280;23615;51.506;7.678;2024-01-06T11:35:06;99362.19;;;3.29;100.00
37778;BME280;23615;51.506;7.678;2024-01-06T11:43:06;99364.41;;;3.60;100.00
37778;BME280;23615;51.506;7.678;2024-01-06T11:45:37;99359.84;;;3.13;100.00
37778;BME280;23615;51.506;7.678;2024-01-06T11:48:04;99360.31;;;3.23;100.00
37778;BME280;23615;51.506;7.678;2024-01-06T11:50:35;99365.97;;;3.20;100.00
37778;BME280;23615;51.506;7.678;2024-01-06T11:53:02;99363.66;;;3.10;100.00
37778;BME280;23615;51.506;7.678;2024-01-06T11:55:28;99360.44;;;3.08;100.00
37778;BME280;23615;51.506;7.678;2024-01-06T11:57:55;99370.00;;;3.16;100.00
37778;BME280;23615;51.506;7.678;2024-01-06T12:00:21;99373.88;;;3.20;100.00
37778;BME280;23615;51.506;7.678;2024-01-06T12:02:46;99373.88;;;3.20;100.00
37778;BME280;23615;51.506;7.678;2024-01-06T12:05:18;99381.59;;;3.21;100.00
37778;BME280;23615;51.506;7.678;2024-01-06T12:07:53;99381.09;;;3.11;100.00
37778;BME280;23615;51.506;7.678;2024-01-06T12:10:20;99382.06;;;3.04;100.00
37778;BME280;23615;51.506;7.678;2024-01-06T12:13:00;99378.31;;;2.91;100.00
37778;BME280;23615;51.506;7.678;2024-01-06T12:15:26;99382.69;;;3.06;100.00
37778;BME280;23615;51.506;7.678;2024-01-06T12:17:52;99388.19;;;3.11;100.00
37778;BME280;23615;51.506;7.678;2024-01-06T12:20:17;99384.66;;;2.97;100.00
37778;BME280;23615;51.506;7.678;2024-01-06T12:22:43;99378.25;;;3.06;100.00
37778;BME280;23615;51.506;7.678;2024-01-06T12:25:10;99375.84;;;3.11;100.00
37778;BME280;23615;51.506;7.678;2024-01-06T12:27:35;99385.38;;;3.12;100.00
37778;BME280;23615;51.506;7.678;2024-01-06T12:30:01;99386.22;;;3.19;100.00
37778;BME280;23615;51.506;7.678;2024-01-06T12:32:26;99390.28;;;3.15;100.00
37778;BME280;23615;51.506;7.678;2024-01-06T12:34:51;99383.38;;;3.14;100.00
37778;BME280;23615;51.506;7.678;2024-01-06T12:37:17;99378.56;;;2.96;100.00
37778;BME280;23615;51.506;7.678;2024-01-06T12:39:43;99384.34;;;3.07;100.00
37778;BME280;23615;51.506;7.678;2024-01-06T12:42:10;99391.28;;;3.14;100.00
37778;BME280;23615;51.506;7.678;2024-01-06T12:44:36;99389.66;;;3.13;100.00
37778;BME280;23615;51.506;7.678;2024-01-06T12:47:04;99396.69;;;3.06;100.00
37778;BME280;23615;51.506;7.678;2024-01-06T12:49:30;99397.88;;;3.04;100.00
37778;BME280;23615;51.506;7.678;2024-01-06T12:51:55;99403.97;;;3.04;100.00
37778;BME280;23615;51.506;7.678;2024-01-06T12:54:20;99404.69;;;3.19;100.00
37778;BME280;23615;51.506;7.678;2024-01-06T12:56:45;99407.56;;;2.96;100.00
37778;BME280;23615;51.506;7.678;2024-01-06T12:59:11;99410.13;;;2.90;100.00
37778;BME280;23615;51.506;7.678;2024-01-06T13:01:36;99406.47;;;3.12;100.00